| time (UTC) | temp F | wind direction | speed MPH | gust MPH | rain 1hr in | rain 24hr in | rain mn in | humidity % | barometer mb |
| 20260509234046 | 62 | 0 | 2.0 | 11.0 | 0.00 | 0.00 | 0.00 | 40 | 1006.5 |
| 20260509233546 | 62 | 36 | 2.0 | 7.0 | 0.00 | 0.00 | 0.00 | 42 | 1006.3 |
| 20260509233053 | 62 | 44 | 1.0 | 11.0 | 0.00 | 0.00 | 0.00 | 42 | 1006.3 |
| 20260509232545 | 62 | 13 | 1.0 | 11.0 | 0.00 | 0.00 | 0.00 | 42 | 1006.3 |
| 20260509232047 | 62 | 5 | 1.0 | 12.0 | 0.00 | 0.00 | 0.00 | 41 | 1006.2 |
| 20260509231602 | 63 | 84 | 1.0 | 12.0 | 0.00 | 0.00 | 0.00 | 42 | 1006.3 |
| 20260509231045 | 63 | 341 | 1.0 | 8.0 | 0.00 | 0.00 | 0.00 | 42 | 1006.1 |
| 20260509230546 | 63 | 301 | 2.0 | 10.0 | 0.00 | 0.00 | 0.00 | 41 | 1006.0 |
| 20260509230050 | 63 | 360 | 3.0 | 10.0 | 0.00 | 0.00 | 0.00 | 40 | 1006.0 |
| 20260509225546 | 63 | 51 | 1.0 | 8.0 | 0.00 | 0.00 | 0.00 | 40 | 1005.8 |
| 20260509225046 | 63 | 42 | 1.0 | 14.0 | 0.00 | 0.00 | 0.00 | 40 | 1005.9 |
| 20260509224548 | 64 | 40 | 1.0 | 14.0 | 0.00 | 0.00 | 0.00 | 39 | 1005.7 |
| 20260509224046 | 65 | 350 | 3.0 | 10.0 | 0.00 | 0.00 | 0.00 | 38 | 1005.6 |
| 20260509223547 | 65 | 17 | 2.0 | 7.0 | 0.00 | 0.00 | 0.00 | 39 | 1005.6 |
| 20260509223055 | 65 | 42 | 1.0 | 12.0 | 0.00 | 0.00 | 0.00 | 40 | 1005.5 |
| 20260509222542 | 64 | 56 | 1.0 | 12.0 | 0.00 | 0.00 | 0.00 | 38 | 1005.4 |
| 20260509222042 | 64 | 19 | 1.0 | 9.0 | 0.00 | 0.00 | 0.00 | 39 | 1005.4 |
| 20260509221558 | 65 | 0 | 1.0 | 12.0 | 0.00 | 0.00 | 0.00 | 40 | 1005.3 |
| 20260509221042 | 65 | 27 | 2.0 | 12.0 | 0.00 | 0.00 | 0.00 | 38 | 1005.2 |
| 20260509220541 | 65 | 112 | 4.0 | 11.0 | 0.00 | 0.00 | 0.00 | 38 | 1005.1 |
| 20260509220051 | 66 | 44 | 2.0 | 10.0 | 0.00 | 0.00 | 0.00 | 39 | 1005.1 |
| 20260509215542 | 66 | 302 | 2.0 | 9.0 | 0.00 | 0.00 | 0.00 | 40 | 1005.1 |
| 20260509215045 | 66 | 11 | 2.0 | 9.0 | 0.00 | 0.00 | 0.00 | 39 | 1004.9 |
| 20260509214547 | 66 | 0 | 1.0 | 12.0 | 0.00 | 0.00 | 0.00 | 40 | 1004.9 |
| 20260509214041 | 67 | 271 | 2.0 | 12.0 | 0.00 | 0.00 | 0.00 | 39 | 1004.9 |
| 20260509213541 | 67 | 360 | 2.0 | 12.0 | 0.00 | 0.00 | 0.00 | 38 | 1004.6 |
| 20260509213120 | 67 | 212 | 2.0 | 10.0 | 0.00 | 0.00 | 0.00 | 38 | 1004.6 |
| 20260509212544 | 68 | 0 | 3.0 | 10.0 | 0.00 | 0.00 | 0.00 | 37 | 1004.6 |
| 20260509212042 | 68 | 252 | 2.0 | 10.0 | 0.00 | 0.00 | 0.00 | 38 | 1004.5 |
| 20260509211614 | 69 | 0 | 0.0 | 6.0 | 0.00 | 0.00 | 0.00 | 43 | 1004.5 |
| 20260509211042 | 69 | 34 | 1.0 | 13.0 | 0.00 | 0.00 | 0.00 | 38 | 1004.5 |
| 20260509210542 | 69 | 336 | 4.0 | 13.0 | 0.00 | 0.00 | 0.00 | 38 | 1004.3 |
| 20260509210101 | 69 | 17 | 2.0 | 12.0 | 0.00 | 0.00 | 0.00 | 37 | 1004.3 |
| 20260509205543 | 70 | 36 | 2.0 | 8.0 | 0.00 | 0.00 | 0.00 | 39 | 1004.2 |
| 20260509205043 | 70 | 58 | 0.0 | 10.0 | 0.00 | 0.00 | 0.00 | 39 | 1004.2 |
| 20260509204604 | 71 | 259 | 3.0 | 10.0 | 0.00 | 0.00 | 0.00 | 38 | 1004.2 |
| 20260509204044 | 71 | 0 | 1.0 | 10.0 | 0.00 | 0.00 | 0.00 | 41 | 1004.0 |
| 20260509203543 | 70 | 285 | 2.0 | 12.0 | 0.00 | 0.00 | 0.00 | 40 | 1004.0 |
| 20260509203059 | 70 | 28 | 2.0 | 12.0 | 0.00 | 0.00 | 0.00 | 39 | 1004.0 |
| 20260509202546 | 70 | 23 | 4.0 | 12.0 | 0.00 | 0.00 | 0.00 | 38 | 1003.8 |
| 20260509202042 | 71 | 351 | 3.0 | 12.0 | 0.00 | 0.00 | 0.00 | 38 | 1003.8 |
| 20260509201553 | 71 | 355 | 3.0 | 12.0 | 0.00 | 0.00 | 0.00 | 36 | 1003.8 |
| 20260509201041 | 72 | 336 | 1.0 | 12.0 | 0.00 | 0.00 | 0.00 | 35 | 1003.6 |
| 20260509200541 | 70 | 295 | 1.0 | 12.0 | 0.00 | 0.00 | 0.00 | 39 | 1003.3 |
| 20260509200052 | 69 | 0 | 1.0 | 7.0 | 0.00 | 0.00 | 0.00 | 37 | 1003.4 |
| 20260509195544 | 69 | 302 | 1.0 | 7.0 | 0.00 | 0.00 | 0.00 | 37 | 1003.3 |
| 20260509195042 | 70 | 48 | 1.0 | 7.0 | 0.00 | 0.00 | 0.00 | 36 | 1003.4 |
| 20260509194556 | 72 | 325 | 1.0 | 7.0 | 0.00 | 0.00 | 0.00 | 36 | 1003.3 |
| 20260509194043 | 72 | 30 | 1.0 | 7.0 | 0.00 | 0.00 | 0.00 | 38 | 1003.3 |
| 20260509193543 | 73 | 0 | 2.0 | 9.0 | 0.00 | 0.00 | 0.00 | 35 | 1003.1 |
| 20260509193112 | 73 | 248 | 2.0 | 9.0 | 0.00 | 0.00 | 0.00 | 38 | 1003.1 |
| 20260509192546 | 72 | 0 | 1.0 | 9.0 | 0.00 | 0.00 | 0.00 | 42 | 1003.1 |
| 20260509192046 | 72 | 71 | 2.0 | 8.0 | 0.00 | 0.00 | 0.00 | 38 | 1003.0 |
| 20260509191549 | 72 | 0 | 1.0 | 8.0 | 0.00 | 0.00 | 0.00 | 38 | 1002.9 |
| 20260509191046 | 74 | 196 | 2.0 | 7.0 | 0.00 | 0.00 | 0.00 | 39 | 1002.8 |
| 20260509190545 | 73 | 326 | 1.0 | 9.0 | 0.00 | 0.00 | 0.00 | 40 | 1002.7 |
| 20260509190054 | 73 | 0 | 2.0 | 9.0 | 0.00 | 0.00 | 0.00 | 37 | 1002.7 |
| 20260509185547 | 73 | 109 | 1.0 | 9.0 | 0.00 | 0.00 | 0.00 | 37 | 1002.6 |
| 20260509185046 | 73 | 0 | 2.0 | 9.0 | 0.00 | 0.00 | 0.00 | 35 | 1002.7 |
| 20260509184550 | 73 | 0 | 1.0 | 9.0 | 0.00 | 0.00 | 0.00 | 43 | 1002.5 |
| 20260509184045 | 71 | 29 | 0.0 | 9.0 | 0.00 | 0.00 | 0.00 | 41 | 1002.5 |
| 20260509183545 | 72 | 82 | 2.0 | 5.0 | 0.00 | 0.00 | 0.00 | 36 | 1002.5 |
| 20260509183056 | 72 | 217 | 0.0 | 5.0 | 0.00 | 0.00 | 0.00 | 39 | 1002.4 |
| 20260509182546 | 72 | 142 | 0.0 | 7.0 | 0.00 | 0.00 | 0.00 | 40 | 1002.5 |
| 20260509182045 | 71 | 267 | 2.0 | 7.0 | 0.00 | 0.00 | 0.00 | 37 | 1002.5 |
| 20260509181607 | 70 | 47 | 0.0 | 6.0 | 0.00 | 0.00 | 0.00 | 43 | 1002.5 |
| 20260509181046 | 70 | 136 | 1.0 | 7.0 | 0.00 | 0.00 | 0.00 | 41 | 1002.4 |
| 20260509180546 | 71 | 180 | 2.0 | 7.0 | 0.00 | 0.00 | 0.00 | 40 | 1002.4 |
| 20260509180055 | 70 | 0 | 1.0 | 10.0 | 0.00 | 0.00 | 0.00 | 43 | 1002.4 |
| 20260509175547 | 70 | 201 | 2.0 | 10.0 | 0.00 | 0.00 | 0.00 | 40 | 1002.5 |
| 20260509175047 | 70 | 146 | 1.0 | 6.0 | 0.00 | 0.00 | 0.00 | 41 | 1002.4 |
| 20260509174554 | 69 | 168 | 1.0 | 8.0 | 0.00 | 0.00 | 0.00 | 39 | 1002.5 |
| 20260509174046 | 70 | 232 | 1.0 | 10.0 | 0.00 | 0.00 | 0.00 | 41 | 1002.6 |
| 20260509173545 | 69 | 217 | 2.0 | 10.0 | 0.00 | 0.00 | 0.00 | 41 | 1002.5 |
| 20260509173052 | 70 | 269 | 1.0 | 6.0 | 0.00 | 0.00 | 0.00 | 42 | 1002.7 |
| 20260509172546 | 70 | 202 | 1.0 | 6.0 | 0.00 | 0.00 | 0.00 | 41 | 1002.7 |
| 20260509172046 | 69 | 232 | 2.0 | 6.0 | 0.00 | 0.00 | 0.00 | 39 | 1002.7 |
| 20260509171607 | 69 | 0 | 1.0 | 8.0 | 0.00 | 0.00 | 0.00 | 44 | 1002.8 |
| 20260509171045 | 67 | 308 | 3.0 | 8.0 | 0.00 | 0.00 | 0.00 | 42 | 1002.7 |
| 20260509170545 | 67 | 192 | 2.0 | 7.0 | 0.00 | 0.00 | 0.00 | 43 | 1002.9 |
| 20260509170050 | 66 | 223 | 1.0 | 7.0 | 0.00 | 0.00 | 0.00 | 48 | 1002.7 |
| 20260509165545 | 65 | 189 | 1.0 | 7.0 | 0.00 | 0.00 | 0.00 | 44 | 1002.7 |
| 20260509165045 | 64 | 207 | 2.0 | 6.0 | 0.00 | 0.00 | 0.00 | 44 | 1002.9 |
| 20260509164557 | 64 | 219 | 1.0 | 5.0 | 0.00 | 0.00 | 0.00 | 43 | 1002.9 |
| 20260509164045 | 63 | 186 | 0.0 | 2.0 | 0.00 | 0.00 | 0.00 | 48 | 1003.0 |
| 20260509163547 | 63 | 0 | 0.0 | 5.0 | 0.00 | 0.00 | 0.00 | 44 | 1003.2 |
| 20260509163059 | 63 | 0 | 0.0 | 5.0 | 0.00 | 0.00 | 0.00 | 46 | 1003.1 |
| 20260509162545 | 62 | 200 | 0.0 | 5.0 | 0.00 | 0.00 | 0.00 | 42 | 1003.1 |
| 20260509162044 | 62 | 0 | 0.0 | 4.0 | 0.00 | 0.00 | 0.00 | 45 | 1003.2 |
| 20260509161551 | 63 | 201 | 1.0 | 4.0 | 0.00 | 0.00 | 0.00 | 42 | 1003.3 |
| 20260509161045 | 63 | 0 | 0.0 | 4.0 | 0.00 | 0.00 | 0.00 | 43 | 1003.3 |
| 20260509160546 | 63 | 0 | 0.0 | 4.0 | 0.00 | 0.00 | 0.00 | 47 | 1003.3 |
| 20260509160054 | 62 | 0 | 0.0 | 6.0 | 0.00 | 0.00 | 0.00 | 45 | 1003.3 |
| 20260509155545 | 63 | 107 | 1.0 | 6.0 | 0.00 | 0.00 | 0.00 | 43 | 1003.3 |
| 20260509155048 | 63 | 0 | 0.0 | 4.0 | 0.00 | 0.00 | 0.00 | 46 | 1003.3 |
| 20260509154553 | 63 | 0 | 0.0 | 4.0 | 0.00 | 0.00 | 0.00 | 43 | 1003.3 |
| 20260509154045 | 63 | 0 | 0.0 | 4.0 | 0.00 | 0.00 | 0.00 | 47 | 1003.2 |
| 20260509153545 | 64 | 0 | 0.0 | 6.0 | 0.00 | 0.00 | 0.00 | 45 | 1003.2 |
| 20260509153053 | 64 | 0 | 0.0 | 6.0 | 0.00 | 0.00 | 0.00 | 49 | 1003.3 |
| 20260509152545 | 64 | 80 | 0.0 | 4.0 | 0.00 | 0.00 | 0.00 | 51 | 1003.2 |
| 20260509152046 | 63 | 0 | 0.0 | 2.0 | 0.00 | 0.00 | 0.00 | 52 | 1003.1 |
| 20260509151552 | 62 | 0 | 0.0 | 4.0 | 0.00 | 0.00 | 0.00 | 55 | 1002.8 |
| 20260509151048 | 62 | 200 | 0.0 | 4.0 | 0.00 | 0.00 | 0.00 | 53 | 1002.7 |
| 20260509150546 | 61 | 202 | 0.0 | 4.0 | 0.00 | 0.00 | 0.00 | 53 | 1002.6 |
| 20260509150052 | 61 | 0 | 0.0 | 5.0 | 0.00 | 0.00 | 0.00 | 56 | 1002.6 |
| 20260509145544 | 60 | 0 | 0.0 | 5.0 | 0.00 | 0.00 | 0.00 | 56 | 1002.6 |
| 20260509145043 | 60 | 0 | 1.0 | 5.0 | 0.00 | 0.00 | 0.00 | 58 | 1002.4 |
| 20260509144552 | 60 | 205 | 1.0 | 5.0 | 0.00 | 0.00 | 0.00 | 59 | 1002.4 |
| 20260509144044 | 61 | 211 | 1.0 | 3.0 | 0.00 | 0.00 | 0.00 | 57 | 1002.3 |
| 20260509143544 | 61 | 221 | 1.0 | 4.0 | 0.00 | 0.00 | 0.00 | 57 | 1002.4 |
| 20260509143104 | 61 | 0 | 0.0 | 4.0 | 0.00 | 0.00 | 0.00 | 57 | 1002.5 |
| 20260509142547 | 61 | 199 | 0.0 | 4.0 | 0.00 | 0.00 | 0.00 | 60 | 1002.4 |
| 20260509142045 | 60 | 200 | 0.0 | 4.0 | 0.00 | 0.00 | 0.00 | 59 | 1002.4 |
| 20260509141554 | 60 | 203 | 0.0 | 3.0 | 0.00 | 0.00 | 0.00 | 59 | 1002.4 |
| 20260509141047 | 60 | 191 | 0.0 | 3.0 | 0.00 | 0.00 | 0.00 | 59 | 1002.3 |
| 20260509140545 | 61 | 0 | 0.0 | 3.0 | 0.00 | 0.00 | 0.00 | 58 | 1002.2 |
| 20260509140058 | 61 | 0 | 0.0 | 2.0 | 0.00 | 0.00 | 0.00 | 59 | 1002.3 |
| 20260509135547 | 61 | 190 | 0.0 | 2.0 | 0.00 | 0.00 | 0.00 | 58 | 1002.2 |
| 20260509135047 | 60 | 0 | 0.0 | 2.0 | 0.00 | 0.00 | 0.00 | 60 | 1002.1 |
| 20260509134557 | 60 | 0 | 0.0 | 3.0 | 0.00 | 0.00 | 0.00 | 59 | 1002.0 |
| 20260509134047 | 60 | 0 | 0.0 | 5.0 | 0.00 | 0.00 | 0.00 | 63 | 1002.1 |
| 20260509133547 | 60 | 200 | 1.0 | 5.0 | 0.00 | 0.00 | 0.00 | 67 | 1002.2 |
| 20260509133101 | 59 | 228 | 1.0 | 5.0 | 0.00 | 0.00 | 0.00 | 69 | 1002.2 |
| 20260509132547 | 59 | 194 | 0.0 | 4.0 | 0.00 | 0.00 | 0.00 | 71 | 1002.2 |
| 20260509132050 | 58 | 0 | 1.0 | 4.0 | 0.00 | 0.00 | 0.00 | 72 | 1002.2 |
| 20260509131556 | 58 | 192 | 1.0 | 5.0 | 0.00 | 0.00 | 0.00 | 72 | 1002.2 |
| 20260509131048 | 58 | 256 | 1.0 | 5.0 | 0.00 | 0.00 | 0.00 | 74 | 1002.1 |
| 20260509130547 | 57 | 0 | 1.0 | 4.0 | 0.00 | 0.00 | 0.00 | 75 | 1001.7 |
| 20260509125547 | 56 | 215 | 0.0 | 4.0 | 0.00 | 0.00 | 0.00 | 76 | 1001.8 |
| 20260509125044 | 56 | 196 | 2.0 | 4.0 | 0.00 | 0.00 | 0.00 | 77 | 1001.9 |
| 20260509124605 | 56 | 0 | 0.0 | 5.0 | 0.00 | 0.00 | 0.00 | 78 | 1001.9 |
| 20260509124044 | 55 | 215 | 2.0 | 5.0 | 0.00 | 0.00 | 0.00 | 79 | 1001.8 |
| 20260509123549 | 55 | 190 | 1.0 | 7.0 | 0.00 | 0.00 | 0.00 | 80 | 1001.8 |
| 20260509123057 | 55 | 232 | 1.0 | 7.0 | 0.00 | 0.00 | 0.00 | 80 | 1001.9 |
| 20260509122543 | 55 | 214 | 2.0 | 7.0 | 0.00 | 0.00 | 0.00 | 81 | 1001.9 |
| 20260509122047 | 54 | 175 | 1.0 | 6.0 | 0.00 | 0.00 | 0.00 | 82 | 1001.9 |
| 20260509121552 | 54 | 208 | 0.0 | 4.0 | 0.00 | 0.00 | 0.00 | 82 | 1002.0 |
| 20260509121048 | 54 | 210 | 0.0 | 5.0 | 0.00 | 0.00 | 0.00 | 83 | 1002.0 |
| 20260509120545 | 54 | 0 | 1.0 | 5.0 | 0.00 | 0.00 | 0.00 | 83 | 1002.0 |
| 20260509120050 | 54 | 215 | 1.0 | 5.0 | 0.00 | 0.00 | 0.00 | 84 | 1001.9 |
| 20260509115545 | 53 | 0 | 1.0 | 5.0 | 0.00 | 0.00 | 0.00 | 84 | 1001.9 |
| 20260509115045 | 53 | 0 | 1.0 | 5.0 | 0.00 | 0.00 | 0.00 | 84 | 1001.7 |
| 20260509114556 | 53 | 196 | 1.0 | 5.0 | 0.00 | 0.00 | 0.00 | 84 | 1001.7 |
| 20260509114045 | 53 | 190 | 1.0 | 5.0 | 0.00 | 0.00 | 0.00 | 84 | 1001.8 |
| 20260509113545 | 53 | 207 | 1.0 | 5.0 | 0.00 | 0.00 | 0.00 | 84 | 1001.7 |
| 20260509113050 | 53 | 232 | 1.0 | 4.0 | 0.00 | 0.00 | 0.00 | 84 | 1001.7 |
| 20260509112545 | 53 | 200 | 1.0 | 4.0 | 0.00 | 0.00 | 0.00 | 84 | 1001.5 |
| 20260509112045 | 53 | 199 | 1.0 | 3.0 | 0.00 | 0.00 | 0.00 | 84 | 1001.5 |
| 20260509111553 | 53 | 228 | 0.0 | 3.0 | 0.00 | 0.00 | 0.00 | 84 | 1001.4 |
| 20260509111045 | 53 | 203 | 1.0 | 4.0 | 0.00 | 0.00 | 0.00 | 83 | 1001.5 |
| 20260509110545 | 53 | 225 | 0.0 | 4.0 | 0.00 | 0.00 | 0.00 | 83 | 1001.5 |
| 20260509110057 | 53 | 205 | 1.0 | 4.0 | 0.00 | 0.00 | 0.00 | 83 | 1001.3 |
| 20260509105545 | 53 | 226 | 1.0 | 4.0 | 0.00 | 0.00 | 0.00 | 84 | 1001.2 |
| 20260509105045 | 53 | 205 | 0.0 | 4.0 | 0.00 | 0.00 | 0.00 | 83 | 1001.2 |
| 20260509104548 | 53 | 219 | 1.0 | 5.0 | 0.00 | 0.00 | 0.00 | 83 | 1001.2 |
| 20260509104044 | 53 | 216 | 1.0 | 6.0 | 0.00 | 0.00 | 0.00 | 83 | 1001.1 |
| 20260509103545 | 53 | 207 | 2.0 | 6.0 | 0.00 | 0.00 | 0.00 | 83 | 1001.0 |
| 20260509103050 | 53 | 222 | 2.0 | 5.0 | 0.00 | 0.00 | 0.00 | 83 | 1000.8 |
| 20260509102545 | 53 | 219 | 1.0 | 5.0 | 0.00 | 0.00 | 0.00 | 83 | 1000.8 |
| 20260509102046 | 53 | 198 | 2.0 | 5.0 | 0.00 | 0.00 | 0.00 | 83 | 1000.8 |
| 20260509101555 | 53 | 0 | 1.0 | 6.0 | 0.00 | 0.00 | 0.00 | 83 | 1000.8 |
| 20260509101044 | 53 | 196 | 0.0 | 6.0 | 0.00 | 0.00 | 0.00 | 82 | 1000.9 |
| 20260509100545 | 53 | 198 | 2.0 | 7.0 | 0.00 | 0.00 | 0.00 | 82 | 1000.9 |
| 20260509100108 | 53 | 209 | 1.0 | 7.0 | 0.00 | 0.00 | 0.00 | 82 | 1001.0 |
| 20260509095546 | 53 | 221 | 2.0 | 6.0 | 0.00 | 0.00 | 0.00 | 82 | 1000.8 |
| 20260509095045 | 53 | 193 | 3.0 | 6.0 | 0.00 | 0.00 | 0.00 | 82 | 1001.2 |
| 20260509094551 | 54 | 0 | 2.0 | 6.0 | 0.00 | 0.00 | 0.00 | 82 | 1001.3 |
| 20260509094045 | 54 | 220 | 2.0 | 6.0 | 0.00 | 0.00 | 0.00 | 81 | 1001.3 |
| 20260509093545 | 54 | 209 | 2.0 | 8.0 | 0.00 | 0.00 | 0.00 | 81 | 1001.2 |
| 20260509093055 | 54 | 234 | 3.0 | 8.0 | 0.00 | 0.00 | 0.00 | 81 | 1001.2 |
| 20260509092545 | 54 | 221 | 2.0 | 8.0 | 0.00 | 0.00 | 0.00 | 81 | 1001.3 |
| 20260509092046 | 54 | 0 | 2.0 | 6.0 | 0.00 | 0.00 | 0.00 | 81 | 1001.3 |
| 20260509091552 | 54 | 220 | 1.0 | 7.0 | 0.00 | 0.00 | 0.00 | 81 | 1001.4 |
| 20260509091047 | 54 | 201 | 2.0 | 7.0 | 0.00 | 0.00 | 0.00 | 81 | 1001.2 |
| 20260509090548 | 54 | 243 | 3.0 | 7.0 | 0.00 | 0.00 | 0.00 | 81 | 1001.2 |
| 20260509090052 | 54 | 234 | 2.0 | 6.0 | 0.00 | 0.00 | 0.00 | 81 | 1001.3 |
| 20260509085545 | 54 | 223 | 3.0 | 8.0 | 0.00 | 0.00 | 0.00 | 81 | 1001.2 |
| 20260509085044 | 54 | 215 | 4.0 | 8.0 | 0.00 | 0.00 | 0.00 | 81 | 1001.3 |
| 20260509084558 | 54 | 202 | 3.0 | 8.0 | 0.00 | 0.00 | 0.00 | 81 | 1001.2 |
| 20260509084046 | 54 | 207 | 2.0 | 7.0 | 0.00 | 0.00 | 0.00 | 81 | 1001.3 |
| 20260509083545 | 54 | 197 | 2.0 | 7.0 | 0.00 | 0.00 | 0.00 | 81 | 1001.4 |
| 20260509083051 | 54 | 201 | 2.0 | 7.0 | 0.00 | 0.00 | 0.00 | 81 | 1001.4 |
| 20260509082545 | 54 | 208 | 3.0 | 7.0 | 0.00 | 0.00 | 0.00 | 81 | 1001.4 |
| 20260509082047 | 54 | 207 | 3.0 | 7.0 | 0.00 | 0.00 | 0.00 | 82 | 1001.3 |
| 20260509081552 | 54 | 219 | 3.0 | 7.0 | 0.00 | 0.00 | 0.00 | 81 | 1001.4 |
| 20260509081045 | 54 | 236 | 3.0 | 7.0 | 0.00 | 0.00 | 0.00 | 81 | 1001.4 |
| 20260509080545 | 54 | 218 | 4.0 | 9.0 | 0.00 | 0.00 | 0.00 | 81 | 1001.4 |
| 20260509080129 | 54 | 201 | 3.0 | 9.0 | 0.00 | 0.00 | 0.00 | 81 | 1001.4 |
| 20260509075547 | 54 | 212 | 3.0 | 7.0 | 0.00 | 0.00 | 0.00 | 81 | 1001.6 |
| 20260509075047 | 54 | 198 | 3.0 | 6.0 | 0.00 | 0.00 | 0.00 | 81 | 1001.5 |
| 20260509074557 | 54 | 209 | 3.0 | 6.0 | 0.00 | 0.00 | 0.00 | 81 | 1001.6 |
| 20260509074046 | 54 | 186 | 2.0 | 6.0 | 0.00 | 0.00 | 0.00 | 80 | 1001.6 |
| 20260509073546 | 55 | 197 | 2.0 | 6.0 | 0.00 | 0.00 | 0.00 | 80 | 1001.6 |
| 20260509073156 | 55 | 196 | 3.0 | 7.0 | 0.00 | 0.00 | 0.00 | 80 | 1001.6 |
| 20260509072546 | 55 | 215 | 3.0 | 7.0 | 0.00 | 0.00 | 0.00 | 80 | 1001.6 |
| 20260509072045 | 55 | 236 | 3.0 | 7.0 | 0.00 | 0.00 | 0.00 | 79 | 1001.6 |
| 20260509071551 | 55 | 186 | 3.0 | 7.0 | 0.00 | 0.00 | 0.00 | 78 | 1001.8 |
| 20260509071046 | 55 | 194 | 4.0 | 8.0 | 0.00 | 0.00 | 0.00 | 78 | 1001.7 |
| 20260509070545 | 56 | 200 | 4.0 | 8.0 | 0.00 | 0.00 | 0.00 | 78 | 1001.8 |
| 20260509070054 | 56 | 201 | 3.0 | 8.0 | 0.00 | 0.00 | 0.00 | 77 | 1001.8 |
| 20260509065545 | 56 | 220 | 3.0 | 10.0 | 0.00 | 0.00 | 0.00 | 78 | 1002.1 |
| 20260509065047 | 56 | 210 | 3.0 | 10.0 | 0.00 | 0.00 | 0.00 | 76 | 1002.1 |
| 20260509064550 | 56 | 224 | 4.0 | 9.0 | 0.00 | 0.00 | 0.00 | 76 | 1002.2 |
| 20260509064047 | 56 | 202 | 2.0 | 8.0 | 0.00 | 0.00 | 0.00 | 75 | 1002.3 |
| 20260509063547 | 56 | 0 | 3.0 | 9.0 | 0.00 | 0.00 | 0.00 | 75 | 1002.4 |
| 20260509063049 | 56 | 229 | 4.0 | 9.0 | 0.00 | 0.00 | 0.00 | 74 | 1002.3 |
| 20260509062544 | 56 | 215 | 3.0 | 6.0 | 0.00 | 0.00 | 0.00 | 75 | 1002.5 |
| 20260509062045 | 55 | 215 | 3.0 | 7.0 | 0.00 | 0.00 | 0.00 | 74 | 1002.6 |
| 20260509061558 | 55 | 207 | 3.0 | 7.0 | 0.00 | 0.00 | 0.00 | 74 | 1002.7 |
| 20260509061045 | 55 | 233 | 3.0 | 6.0 | 0.00 | 0.00 | 0.00 | 73 | 1002.8 |
| 20260509060547 | 55 | 221 | 2.0 | 6.0 | 0.00 | 0.00 | 0.00 | 72 | 1002.8 |
| 20260509060051 | 55 | 202 | 2.0 | 7.0 | 0.00 | 0.00 | 0.00 | 73 | 1002.8 |
| 20260509055548 | 54 | 202 | 3.0 | 7.0 | 0.00 | 0.00 | 0.00 | 73 | 1002.9 |
| 20260509055044 | 54 | 205 | 2.0 | 6.0 | 0.00 | 0.00 | 0.00 | 73 | 1002.8 |
| 20260509054549 | 54 | 223 | 2.0 | 5.0 | 0.00 | 0.00 | 0.00 | 72 | 1002.9 |
| 20260509054045 | 53 | 200 | 1.0 | 5.0 | 0.00 | 0.00 | 0.00 | 72 | 1003.1 |
| 20260509053546 | 53 | 198 | 2.0 | 5.0 | 0.00 | 0.00 | 0.00 | 74 | 1003.2 |
| 20260509053052 | 53 | 208 | 2.0 | 5.0 | 0.00 | 0.00 | 0.00 | 75 | 1003.2 |
| 20260509052545 | 53 | 211 | 1.0 | 6.0 | 0.00 | 0.00 | 0.00 | 76 | 1003.4 |
| 20260509052046 | 53 | 201 | 3.0 | 6.0 | 0.00 | 0.00 | 0.00 | 77 | 1003.3 |
| 20260509051558 | 52 | 192 | 2.0 | 6.0 | 0.00 | 0.00 | 0.00 | 78 | 1003.4 |
| 20260509051046 | 52 | 205 | 3.0 | 4.0 | 0.00 | 0.00 | 0.00 | 78 | 1003.4 |
| 20260509050544 | 52 | 202 | 1.0 | 6.0 | 0.00 | 0.00 | 0.00 | 79 | 1003.5 |
| 20260509050053 | 52 | 211 | 2.0 | 7.0 | 0.00 | 0.00 | 0.00 | 80 | 1003.6 |
| 20260509045547 | 52 | 187 | 4.0 | 7.0 | 0.00 | 0.00 | 0.00 | 79 | 1003.5 |
| 20260509045046 | 52 | 185 | 4.0 | 7.0 | 0.00 | 0.00 | 0.00 | 79 | 1003.5 |
| 20260509044554 | 52 | 198 | 4.0 | 7.0 | 0.00 | 0.00 | 0.00 | 78 | 1003.3 |
| 20260509044045 | 52 | 191 | 4.0 | 7.0 | 0.00 | 0.00 | 0.00 | 78 | 1003.3 |
| 20260509043546 | 52 | 183 | 2.0 | 6.0 | 0.00 | 0.00 | 0.00 | 77 | 1003.3 |
| 20260509043055 | 52 | 188 | 3.0 | 6.0 | 0.00 | 0.00 | 0.00 | 77 | 1003.4 |
| 20260509042547 | 52 | 178 | 3.0 | 5.0 | 0.00 | 0.00 | 0.00 | 76 | 1003.6 |
| 20260509042045 | 52 | 194 | 4.0 | 6.0 | 0.00 | 0.00 | 0.00 | 76 | 1003.5 |
| 20260509041552 | 52 | 190 | 4.0 | 6.0 | 0.00 | 0.00 | 0.00 | 77 | 1003.5 |
| 20260509041047 | 52 | 192 | 4.0 | 6.0 | 0.00 | 0.00 | 0.00 | 76 | 1003.5 |
| 20260509040544 | 52 | 195 | 3.0 | 6.0 | 0.00 | 0.00 | 0.00 | 77 | 1003.5 |
| 20260509035547 | 52 | 192 | 4.0 | 7.0 | 0.00 | 0.00 | 0.00 | 75 | 1003.4 |
| 20260509035045 | 52 | 180 | 4.0 | 7.0 | 0.00 | 0.00 | 0.00 | 75 | 1003.5 |
| 20260509034551 | 52 | 182 | 4.0 | 7.0 | 0.00 | 0.00 | 0.00 | 75 | 1003.5 |
| 20260509034044 | 52 | 190 | 4.0 | 7.0 | 0.00 | 0.00 | 0.00 | 75 | 1003.5 |
| 20260509033547 | 52 | 196 | 4.0 | 7.0 | 0.00 | 0.00 | 0.00 | 75 | 1003.6 |
| 20260509033050 | 52 | 180 | 4.0 | 7.0 | 0.00 | 0.00 | 0.00 | 75 | 1003.5 |
| 20260509032547 | 52 | 177 | 4.0 | 7.0 | 0.00 | 0.00 | 0.00 | 75 | 1003.6 |
| 20260509032048 | 53 | 186 | 5.0 | 8.0 | 0.00 | 0.00 | 0.00 | 74 | 1003.6 |
| 20260509031554 | 53 | 184 | 4.0 | 8.0 | 0.00 | 0.00 | 0.00 | 74 | 1003.7 |
| 20260509031047 | 53 | 184 | 5.0 | 8.0 | 0.00 | 0.00 | 0.00 | 73 | 1003.8 |
| 20260509030545 | 53 | 191 | 5.0 | 7.0 | 0.00 | 0.00 | 0.00 | 73 | 1003.8 |
| 20260509030053 | 53 | 188 | 5.0 | 7.0 | 0.00 | 0.00 | 0.00 | 73 | 1003.9 |
| 20260509025545 | 53 | 178 | 4.0 | 7.0 | 0.00 | 0.00 | 0.00 | 74 | 1004.0 |
| 20260509025045 | 53 | 178 | 4.0 | 8.0 | 0.00 | 0.00 | 0.00 | 73 | 1003.8 |
| 20260509024550 | 53 | 189 | 4.0 | 8.0 | 0.00 | 0.00 | 0.00 | 73 | 1003.9 |
| 20260509024043 | 53 | 198 | 4.0 | 7.0 | 0.00 | 0.00 | 0.00 | 73 | 1004.0 |
| 20260509023545 | 53 | 183 | 3.0 | 6.0 | 0.00 | 0.00 | 0.00 | 73 | 1004.0 |
| 20260509023050 | 53 | 186 | 3.0 | 7.0 | 0.00 | 0.00 | 0.00 | 72 | 1004.0 |
| 20260509022544 | 53 | 175 | 3.0 | 7.0 | 0.00 | 0.00 | 0.00 | 72 | 1004.1 |
| 20260509022048 | 53 | 186 | 3.0 | 7.0 | 0.00 | 0.00 | 0.00 | 71 | 1004.1 |
| 20260509021552 | 53 | 188 | 2.0 | 5.0 | 0.00 | 0.00 | 0.00 | 71 | 1004.1 |
| 20260509021047 | 53 | 196 | 1.0 | 6.0 | 0.00 | 0.00 | 0.00 | 70 | 1004.1 |
| 20260509020547 | 53 | 0 | 1.0 | 6.0 | 0.00 | 0.00 | 0.00 | 70 | 1004.0 |
| 20260509020054 | 53 | 186 | 2.0 | 6.0 | 0.00 | 0.00 | 0.00 | 68 | 1004.1 |
| 20260509015545 | 54 | 187 | 0.0 | 7.0 | 0.00 | 0.00 | 0.00 | 67 | 1004.3 |
| 20260509015046 | 54 | 198 | 2.0 | 7.0 | 0.00 | 0.00 | 0.00 | 67 | 1004.2 |
| 20260509014549 | 54 | 180 | 1.0 | 6.0 | 0.00 | 0.00 | 0.00 | 67 | 1004.2 |
| 20260509014051 | 55 | 188 | 2.0 | 8.0 | 0.00 | 0.00 | 0.00 | 68 | 1004.3 |
| 20260509013548 | 55 | 196 | 3.0 | 8.0 | 0.00 | 0.00 | 0.00 | 66 | 1004.3 |
| 20260509013101 | 55 | 186 | 5.0 | 8.0 | 0.00 | 0.00 | 0.00 | 67 | 1004.3 |
| 20260509012547 | 56 | 192 | 4.0 | 8.0 | 0.00 | 0.00 | 0.00 | 67 | 1004.3 |
| 20260509012046 | 56 | 192 | 5.0 | 8.0 | 0.00 | 0.00 | 0.00 | 68 | 1004.4 |
| 20260509011553 | 56 | 180 | 4.0 | 7.0 | 0.00 | 0.00 | 0.00 | 66 | 1004.5 |
| 20260509011046 | 56 | 178 | 3.0 | 6.0 | 0.00 | 0.00 | 0.00 | 66 | 1004.4 |
| 20260509010547 | 57 | 189 | 1.0 | 9.0 | 0.00 | 0.00 | 0.00 | 65 | 1004.5 |
| 20260509010056 | 57 | 0 | 3.0 | 9.0 | 0.00 | 0.00 | 0.00 | 64 | 1004.5 |
| 20260509005548 | 57 | 190 | 5.0 | 10.0 | 0.00 | 0.00 | 0.00 | 65 | 1004.5 |
| 20260509005047 | 58 | 172 | 6.0 | 10.0 | 0.00 | 0.00 | 0.00 | 64 | 1004.5 |
| 20260509004610 | 58 | 181 | 4.0 | 10.0 | 0.00 | 0.00 | 0.00 | 65 | 1004.5 |
| 20260509004049 | 58 | 193 | 5.0 | 10.0 | 0.00 | 0.00 | 0.00 | 64 | 1004.4 |
| 20260509003547 | 58 | 194 | 3.0 | 9.0 | 0.00 | 0.00 | 0.00 | 60 | 1004.5 |
| 20260509003052 | 59 | 194 | 3.0 | 9.0 | 0.00 | 0.00 | 0.00 | 60 | 1004.5 |
| 20260509002548 | 59 | 198 | 4.0 | 8.0 | 0.00 | 0.00 | 0.00 | 60 | 1004.5 |
| 20260509002047 | 59 | 185 | 4.0 | 10.0 | 0.00 | 0.00 | 0.00 | 57 | 1004.5 |
| 20260509001551 | 59 | 205 | 4.0 | 10.0 | 0.00 | 0.00 | 0.00 | 58 | 1004.5 |
| 20260509001048 | 59 | 172 | 4.0 | 10.0 | 0.00 | 0.00 | 0.00 | 55 | 1004.6 |
| 20260509000545 | 59 | 200 | 3.0 | 10.0 | 0.00 | 0.00 | 0.00 | 54 | 1004.5 |
| 20260509000051 | 59 | 188 | 6.0 | 10.0 | 0.00 | 0.00 | 0.00 | 55 | 1004.7 |
| 20260508235547 | 60 | 183 | 3.0 | 8.0 | 0.00 | 0.00 | 0.00 | 54 | 1004.7 |
| 20260508235046 | 60 | 196 | 2.0 | 9.0 | 0.00 | 0.00 | 0.00 | 49 | 1004.7 |
| 20260508234552 | 60 | 157 | 3.0 | 9.0 | 0.00 | 0.00 | 0.00 | 51 | 1004.8 |